Cambrils, Spain
Current Conditions -  °F | °C
As of 7:30 PM on Sunday 21 Dec 2014 (Local Time) from LERS Reporting Station
Clear Clear  
Wind Chill: 45°   Ceiling: Unl
Heat Index: 45°   Visibility: 6mi
Dew Point: 41°   Wind: 3mph
Humidity: 87%   Direction: 30°NNE
Pressure: 30.48"   Gusts: NA
Location:  41.07°N, 1.05°E
Report Text: LERS 211830Z 03003KT CAVOK 07/05 Q1032
Loading
Personal Weather Stations






























Interactive Weather Map New forecast layout! Learn more

10-Day Weather Forecast

Advertisements
Track Severe Weather on mobile